Time;durP1;ratioP1;P1;durP2;ratioP2;P2;SDS_P1;SDS_P2;PMS_P1;PMS_P2;Temp;Humidity;BMP_temperature;BMP_pressure;BME280_temperature;BME280_humidity;BME280_pressure;Samples;Min_cycle;Max_cycle;Signal;HPM_P1;HPM_P2
2023/12/09 00:00:07;;;;;;;0.82;0.82;;;;;;;;;;1039589;28;20033;-74
2023/12/09 00:00:38;;;;;;;5.15;1.95;;;;;;;;;;1039031;28;20033;-74
2023/12/09 00:01:08;;;;;;;1.20;0.93;;;;;;;;;;1039510;28;20449;-74
2023/12/09 00:01:42;;;;;;;4.80;1.75;;;;;;;;;;1039535;28;20116;-74
2023/12/09 00:02:12;;;;;;;2.50;1.17;;;;;;;;;;1039438;28;20029;-74
2023/12/09 00:02:43;;;;;;;2.00;1.85;;;;;;;;;;1039360;28;20417;-74
2023/12/09 00:03:13;;;;;;;0.75;0.73;;;;;;;;;;1039448;28;20033;-74
2023/12/09 00:03:43;;;;;;;0.52;0.52;;;;;;;;;;1039099;28;20076;-74
2023/12/09 00:04:14;;;;;;;4.90;2.05;;;;;;;;;;1038929;28;20018;-74
2023/12/09 00:04:44;;;;;;;1.50;1.40;;;;;;;;;;1039211;28;20037;-74
2023/12/09 00:05:15;;;;;;;2.17;1.67;;;;;;;;;;1039346;28;20021;-74
2023/12/09 00:05:45;;;;;;;5.47;2.15;;;;;;;;;;1039281;28;20029;-74
2023/12/09 00:06:16;;;;;;;1.48;1.38;;;;;;;;;;1039259;28;20512;-74
2023/12/09 00:06:47;;;;;;;0.88;0.88;;;;;;;;;;1039099;28;20148;-74
2023/12/09 00:07:18;;;;;;;3.03;2.22;;;;;;;;;;1039696;28;20021;-74
2023/12/09 00:07:50;;;;;;;0.75;0.75;;;;;;;;;;1039328;28;20532;-72
2023/12/09 00:08:20;;;;;;;1.48;1.33;;;;;;;;;;1039332;28;20041;-74
2023/12/09 00:08:50;;;;;;;1.33;1.20;;;;;;;;;;1039456;28;20038;-74
2023/12/09 00:09:21;;;;;;;1.00;0.70;;;;;;;;;;1035345;28;20065;-74
2023/12/09 00:09:51;;;;;;;3.92;1.85;;;;;;;;;;1039233;28;20025;-74
2023/12/09 00:10:22;;;;;;;2.35;0.98;;;;;;;;;;1039311;28;20036;-74
2023/12/09 00:10:52;;;;;;;6.00;1.85;;;;;;;;;;1039463;28;20078;-74
2023/12/09 00:11:23;;;;;;;1.85;1.13;;;;;;;;;;1038941;28;20112;-74
2023/12/09 00:11:53;;;;;;;1.95;1.85;;;;;;;;;;1038705;28;20025;-74
2023/12/09 00:12:23;;;;;;;0.80;0.68;;;;;;;;;;1039449;28;20021;-74
2023/12/09 00:12:54;;;;;;;3.38;2.30;;;;;;;;;;1039517;28;20017;-74
2023/12/09 00:13:25;;;;;;;2.47;2.28;;;;;;;;;;1039239;28;20049;-74
2023/12/09 00:13:56;;;;;;;1.27;1.20;;;;;;;;;;1039149;28;20464;-74
2023/12/09 00:14:26;;;;;;;0.70;0.65;;;;;;;;;;1038883;28;20183;-74
2023/12/09 00:14:57;;;;;;;1.02;0.88;;;;;;;;;;1039306;28;20065;-74
2023/12/09 00:15:27;;;;;;;1.92;1.75;;;;;;;;;;1039270;28;20027;-74
2023/12/09 00:15:58;;;;;;;4.90;1.80;;;;;;;;;;1039519;28;20021;-74
2023/12/09 00:16:28;;;;;;;0.55;0.55;;;;;;;;;;1038705;28;20397;-74
2023/12/09 00:16:59;;;;;;;0.88;0.88;;;;;;;;;;1039451;28;20048;-74
2023/12/09 00:17:29;;;;;;;1.88;1.42;;;;;;;;;;1039308;28;20056;-74
2023/12/09 00:17:59;;;;;;;0.75;0.68;;;;;;;;;;1039057;28;20024;-74
2023/12/09 00:18:30;;;;;;;11.18;2.58;;;;;;;;;;1039536;28;20013;-74
2023/12/09 00:19:00;;;;;;;2.45;1.48;;;;;;;;;;1039987;28;20025;-74
2023/12/09 00:19:31;;;;;;;2.63;1.85;;;;;;;;;;1039510;28;20026;-74
2023/12/09 00:20:04;;;;;;;8.20;2.65;;;;;;;;;;1039141;28;20026;-74
2023/12/09 00:20:35;;;;;;;1.35;1.08;;;;;;;;;;1039236;28;20056;-74
2023/12/09 00:21:05;;;;;;;5.47;2.58;;;;;;;;;;1039240;28;20017;-74
2023/12/09 00:21:36;;;;;;;1.98;1.80;;;;;;;;;;1038888;28;20022;-74
2023/12/09 00:22:06;;;;;;;3.42;1.65;;;;;;;;;;1039373;28;20033;-73
2023/12/09 00:22:38;;;;;;;0.98;0.65;;;;;;;;;;1039345;28;20144;-73
2023/12/09 00:23:08;;;;;;;1.83;1.73;;;;;;;;;;1039358;28;20112;-73
2023/12/09 00:23:39;;;;;;;2.78;2.05;;;;;;;;;;1039694;28;20017;-73
2023/12/09 00:24:09;;;;;;;1.25;1.15;;;;;;;;;;1039727;28;20025;-73
2023/12/09 00:24:40;;;;;;;1.17;1.02;;;;;;;;;;1039694;28;20029;-73
2023/12/09 00:25:10;;;;;;;2.65;1.27;;;;;;;;;;1039638;28;20040;-73
2023/12/09 00:25:41;;;;;;;1.23;1.15;;;;;;;;;;1039266;28;20029;-73
2023/12/09 00:26:11;;;;;;;2.65;1.42;;;;;;;;;;1039175;28;20078;-73
2023/12/09 00:26:42;;;;;;;1.00;0.98;;;;;;;;;;1039202;28;20517;-73
2023/12/09 00:27:12;;;;;;;2.70;1.38;;;;;;;;;;1039614;28;20057;-73
2023/12/09 00:27:42;;;;;;;1.63;1.52;;;;;;;;;;1039260;28;20108;-73
2023/12/09 00:28:13;;;;;;;1.05;1.05;;;;;;;;;;1035117;28;20083;-73
2023/12/09 00:28:44;;;;;;;0.63;0.63;;;;;;;;;;1035260;28;20092;-73
2023/12/09 00:29:15;;;;;;;0.73;0.70;;;;;;;;;;1034557;28;20120;-73
2023/12/09 00:29:45;;;;;;;3.35;2.70;;;;;;;;;;1035111;28;20022;-74
2023/12/09 00:30:16;;;;;;;1.38;1.25;;;;;;;;;;1039308;28;20052;-74
2023/12/09 00:30:46;;;;;;;1.63;1.45;;;;;;;;;;1035212;28;20018;-74
2023/12/09 00:31:16;;;;;;;1.17;1.08;;;;;;;;;;1035302;28;20390;-74
2023/12/09 00:31:47;;;;;;;1.88;1.13;;;;;;;;;;1039276;28;20456;-74
2023/12/09 00:32:17;;;;;;;1.45;1.35;;;;;;;;;;1039336;28;20505;-72
2023/12/09 00:32:48;;;;;;;6.35;3.75;;;;;;;;;;1039611;28;20021;-73
2023/12/09 00:33:18;;;;;;;4.70;0.75;;;;;;;;;;1040186;28;20040;-73
2023/12/09 00:33:49;;;;;;;1.38;1.27;;;;;;;;;;1039665;28;20032;-73
2023/12/09 00:34:19;;;;;;;2.10;1.38;;;;;;;;;;1039540;28;20025;-73
2023/12/09 00:34:49;;;;;;;0.70;0.70;;;;;;;;;;1039556;28;20025;-73
2023/12/09 00:35:20;;;;;;;0.80;0.80;;;;;;;;;;1039520;28;20033;-73
2023/12/09 00:35:50;;;;;;;6.88;2.00;;;;;;;;;;1039748;28;20832;-73
2023/12/09 00:36:21;;;;;;;3.85;1.98;;;;;;;;;;1039244;28;20120;-73
2023/12/09 00:36:51;;;;;;;2.92;2.00;;;;;;;;;;1039592;28;20013;-73
2023/12/09 00:37:22;;;;;;;1.15;1.05;;;;;;;;;;1039321;28;20071;-73
2023/12/09 00:37:53;;;;;;;0.45;0.45;;;;;;;;;;1039344;28;20048;-73
2023/12/09 00:38:23;;;;;;;1.25;1.15;;;;;;;;;;1039340;28;20025;-73
2023/12/09 00:38:53;;;;;;;2.47;2.28;;;;;;;;;;1039558;28;20022;-73
2023/12/09 00:39:24;;;;;;;1.10;1.10;;;;;;;;;;1039226;28;20115;-73
2023/12/09 00:39:54;;;;;;;0.68;0.68;;;;;;;;;;1039180;28;20025;-73
2023/12/09 00:40:25;;;;;;;2.28;0.75;;;;;;;;;;1039135;28;20013;-73
2023/12/09 00:40:55;;;;;;;1.70;0.90;;;;;;;;;;1039473;28;20044;-73
2023/12/09 00:41:26;;;;;;;1.88;1.50;;;;;;;;;;1039505;28;20090;-73
2023/12/09 00:41:56;;;;;;;2.00;1.02;;;;;;;;;;1039661;28;20120;-73
2023/12/09 00:42:26;;;;;;;4.05;2.92;;;;;;;;;;1039624;28;20522;-73
2023/12/09 00:42:57;;;;;;;3.90;2.30;;;;;;;;;;1039157;28;20076;-73
2023/12/09 00:43:27;;;;;;;0.77;0.77;;;;;;;;;;1038991;28;20025;-73
2023/12/09 00:43:58;;;;;;;1.85;1.63;;;;;;;;;;1039424;28;20116;-73
2023/12/09 00:44:28;;;;;;;0.70;0.70;;;;;;;;;;1039250;28;20025;-73
2023/12/09 00:44:58;;;;;;;4.40;1.73;;;;;;;;;;1039701;28;20013;-74
2023/12/09 00:45:29;;;;;;;2.05;1.20;;;;;;;;;;1039090;28;20017;-74
2023/12/09 00:45:59;;;;;;;1.35;1.25;;;;;;;;;;1039416;28;20024;-74
2023/12/09 00:46:30;;;;;;;1.08;1.08;;;;;;;;;;1039025;28;20052;-74
2023/12/09 00:47:01;;;;;;;1.02;0.93;;;;;;;;;;1039563;28;20099;-74
2023/12/09 00:47:31;;;;;;;0.55;0.55;;;;;;;;;;1039138;28;20043;-74
2023/12/09 00:48:01;;;;;;;1.58;1.27;;;;;;;;;;1039385;28;20440;-74
2023/12/09 00:48:32;;;;;;;1.52;1.42;;;;;;;;;;1039235;28;20113;-74
2023/12/09 00:49:02;;;;;;;0.73;0.73;;;;;;;;;;1039547;28;20025;-74
2023/12/09 00:49:33;;;;;;;0.88;0.88;;;;;;;;;;1039464;28;20021;-74
2023/12/09 00:50:03;;;;;;;0.65;0.65;;;;;;;;;;1039024;28;20421;-74
2023/12/09 00:50:34;;;;;;;3.67;1.77;;;;;;;;;;1039529;28;20021;-73
2023/12/09 00:51:04;;;;;;;2.13;1.98;;;;;;;;;;1039453;28;20033;-73
2023/12/09 00:51:35;;;;;;;2.75;1.83;;;;;;;;;;1038828;28;20026;-73
2023/12/09 00:52:05;;;;;;;3.50;1.70;;;;;;;;;;1039555;28;20029;-73
2023/12/09 00:52:37;;;;;;;4.25;2.17;;;;;;;;;;1039621;28;20029;-74
2023/12/09 00:53:07;;;;;;;1.75;1.55;;;;;;;;;;1039743;28;20037;-74
2023/12/09 00:53:38;;;;;;;0.70;0.70;;;;;;;;;;1039805;28;20496;-73
2023/12/09 00:54:08;;;;;;;2.50;1.80;;;;;;;;;;1039564;28;20021;-73
2023/12/09 00:54:39;;;;;;;2.47;2.00;;;;;;;;;;1039458;28;20535;-73
2023/12/09 00:55:09;;;;;;;0.73;0.73;;;;;;;;;;1039677;28;20033;-74
2023/12/09 00:55:40;;;;;;;0.30;0.30;;;;;;;;;;1039131;28;20022;-74
2023/12/09 00:56:10;;;;;;;2.35;2.25;;;;;;;;;;1039440;28;20088;-74
2023/12/09 00:56:41;;;;;;;0.35;0.35;;;;;;;;;;1039304;28;20079;-74
2023/12/09 00:57:11;;;;;;;2.20;1.05;;;;;;;;;;1039349;28;20021;-74
2023/12/09 00:57:42;;;;;;;1.20;1.13;;;;;;;;;;1039231;28;20413;-74
2023/12/09 00:58:12;;;;;;;1.60;1.50;;;;;;;;;;1039333;28;20124;-74
2023/12/09 00:58:42;;;;;;;1.60;1.20;;;;;;;;;;1039241;28;20120;-74
2023/12/09 00:59:13;;;;;;;4.10;1.17;;;;;;;;;;1039687;28;20096;-74
2023/12/09 00:59:43;;;;;;;0.43;0.43;;;;;;;;;;1035006;28;20024;-74
2023/12/09 01:00:15;;;;;;;0.95;0.90;;;;;;;;;;1035008;28;20076;-74
2023/12/09 01:00:45;;;;;;;0.52;0.45;;;;;;;;;;1038190;28;20025;-74
2023/12/09 01:01:16;;;;;;;1.27;1.17;;;;;;;;;;1039283;28;20025;-74
2023/12/09 01:01:46;;;;;;;2.53;2.28;;;;;;;;;;1039614;28;20525;-74
2023/12/09 01:02:16;;;;;;;2.15;1.90;;;;;;;;;;1039827;28;20431;-73
2023/12/09 01:02:47;;;;;;;3.67;1.45;;;;;;;;;;1039184;28;20033;-73
2023/12/09 01:03:17;;;;;;;2.33;1.85;;;;;;;;;;1039318;28;20104;-73
2023/12/09 01:03:48;;;;;;;2.72;0.52;;;;;;;;;;1038682;28;20017;-73
2023/12/09 01:04:18;;;;;;;1.15;1.15;;;;;;;;;;1039183;28;20018;-73
2023/12/09 01:04:49;;;;;;;2.05;1.83;;;;;;;;;;1039480;28;20026;-74
2023/12/09 01:05:19;;;;;;;0.80;0.80;;;;;;;;;;1039108;28;20040;-74
2023/12/09 01:05:49;;;;;;;1.90;1.65;;;;;;;;;;1039222;28;20366;-74
2023/12/09 01:06:20;;;;;;;1.63;1.02;;;;;;;;;;1037489;28;20499;-74
2023/12/09 01:06:50;;;;;;;1.73;1.13;;;;;;;;;;1038434;28;20078;-74
2023/12/09 01:07:21;;;;;;;0.60;0.60;;;;;;;;;;1039501;28;20021;-74
2023/12/09 01:07:51;;;;;;;9.23;2.38;;;;;;;;;;1039030;28;20033;-74
2023/12/09 01:08:22;;;;;;;4.88;1.45;;;;;;;;;;1038702;28;20076;-74
2023/12/09 01:08:52;;;;;;;1.70;1.08;;;;;;;;;;1039515;28;20022;-74
2023/12/09 01:09:22;;;;;;;1.60;1.40;;;;;;;;;;1038952;28;20453;-74
2023/12/09 01:09:53;;;;;;;0.55;0.55;;;;;;;;;;1038455;28;20087;-74
2023/12/09 01:10:23;;;;;;;0.98;0.98;;;;;;;;;;1038525;28;20084;-74
2023/12/09 01:10:54;;;;;;;1.65;1.23;;;;;;;;;;1039528;28;20078;-74
2023/12/09 01:11:24;;;;;;;8.43;3.67;;;;;;;;;;1039312;28;20044;-74
2023/12/09 01:11:55;;;;;;;1.70;0.55;;;;;;;;;;1039042;28;20033;-74
2023/12/09 01:12:25;;;;;;;0.30;0.30;;;;;;;;;;1039519;28;20373;-74
2023/12/09 01:12:56;;;;;;;0.73;0.73;;;;;;;;;;1039037;28;20575;-74
2023/12/09 01:13:28;;;;;;;1.67;0.80;;;;;;;;;;1039907;28;20017;-74
2023/12/09 01:13:58;;;;;;;1.60;1.13;;;;;;;;;;1039111;28;21403;-74
2023/12/09 01:14:28;;;;;;;5.03;2.83;;;;;;;;;;1038847;28;20051;-74
2023/12/09 01:14:59;;;;;;;10.30;2.45;;;;;;;;;;1039299;28;20096;-74
2023/12/09 01:15:29;;;;;;;1.23;1.13;;;;;;;;;;1038671;28;20022;-74
2023/12/09 01:16:00;;;;;;;2.50;2.03;;;;;;;;;;1037991;28;20544;-74
2023/12/09 01:16:30;;;;;;;10.40;1.75;;;;;;;;;;1038596;28;20223;-74
2023/12/09 01:17:01;;;;;;;0.30;0.30;;;;;;;;;;1038977;28;20115;-74
2023/12/09 01:17:31;;;;;;;2.60;2.03;;;;;;;;;;1038567;28;20028;-74
2023/12/09 01:18:02;;;;;;;0.73;0.73;;;;;;;;;;1034009;28;20128;-74
2023/12/09 01:18:32;;;;;;;0.15;0.15;;;;;;;;;;1034538;28;20068;-74
2023/12/09 01:19:03;;;;;;;2.83;0.82;;;;;;;;;;1034632;28;20541;-74
2023/12/09 01:19:33;;;;;;;3.00;1.90;;;;;;;;;;1034622;28;20549;-74
2023/12/09 01:20:04;;;;;;;0.95;0.90;;;;;;;;;;1034342;28;20056;-74
2023/12/09 01:20:35;;;;;;;20.13;3.40;;;;;;;;;;1034328;28;20026;-74
2023/12/09 01:21:05;;;;;;;3.83;1.60;;;;;;;;;;1037499;28;20029;-74
2023/12/09 01:21:36;;;;;;;6.55;1.90;;;;;;;;;;1037906;28;20151;-74
2023/12/09 01:22:06;;;;;;;2.05;1.95;;;;;;;;;;1042518;28;20029;-74
2023/12/09 01:22:37;;;;;;;1.42;1.33;;;;;;;;;;1042869;28;20124;-74
2023/12/09 01:23:07;;;;;;;1.58;1.48;;;;;;;;;;1038829;28;20021;-74
2023/12/09 01:23:39;;;;;;;1.33;1.23;;;;;;;;;;1039053;28;20029;-74
2023/12/09 01:24:10;;;;;;;2.92;2.70;;;;;;;;;;1038666;28;20108;-74
2023/12/09 01:24:40;;;;;;;2.13;1.98;;;;;;;;;;1038670;28;20022;-73
2023/12/09 01:25:10;;;;;;;0.90;0.90;;;;;;;;;;1039026;28;20558;-74
2023/12/09 01:25:41;;;;;;;2.42;2.22;;;;;;;;;;1038965;28;20018;-74
2023/12/09 01:26:11;;;;;;;3.30;2.65;;;;;;;;;;1038068;28;20509;-74
2023/12/09 01:26:42;;;;;;;1.90;1.52;;;;;;;;;;1038802;28;20048;-74
2023/12/09 01:27:12;;;;;;;0.63;0.55;;;;;;;;;;1039701;28;20036;-74
2023/12/09 01:27:43;;;;;;;2.05;1.45;;;;;;;;;;1038369;28;20112;-74
2023/12/09 01:28:13;;;;;;;0.35;0.35;;;;;;;;;;1038937;28;20786;-74
2023/12/09 01:28:44;;;;;;;2.92;2.53;;;;;;;;;;1038996;28;20018;-74
2023/12/09 01:29:14;;;;;;;1.67;0.77;;;;;;;;;;1039959;28;20116;-74
2023/12/09 01:29:45;;;;;;;0.35;0.35;;;;;;;;;;1039606;28;20499;-74
2023/12/09 01:30:15;;;;;;;1.10;1.10;;;;;;;;;;1037932;28;20068;-74
2023/12/09 01:30:45;;;;;;;1.65;1.20;;;;;;;;;;1040078;28;20022;-74
2023/12/09 01:31:16;;;;;;;0.30;0.30;;;;;;;;;;1035475;28;20048;-74
2023/12/09 01:31:46;;;;;;;1.65;1.30;;;;;;;;;;1034295;28;20040;-74
2023/12/09 01:32:17;;;;;;;1.95;1.58;;;;;;;;;;1039552;28;20018;-74
2023/12/09 01:32:47;;;;;;;3.30;1.45;;;;;;;;;;1039935;28;20160;-74
2023/12/09 01:33:18;;;;;;;0.25;0.25;;;;;;;;;;1038672;28;20033;-74
2023/12/09 01:33:48;;;;;;;1.67;0.80;;;;;;;;;;1039282;28;20025;-74
2023/12/09 01:34:18;;;;;;;2.65;1.30;;;;;;;;;;1039761;28;20021;-74
2023/12/09 01:34:49;;;;;;;1.40;1.15;;;;;;;;;;1039730;28;20033;-74
2023/12/09 01:35:19;;;;;;;0.63;0.63;;;;;;;;;;1039933;28;20021;-74
2023/12/09 01:35:50;;;;;;;9.80;1.35;;;;;;;;;;1040313;28;20028;-74
2023/12/09 01:36:20;;;;;;;1.08;1.08;;;;;;;;;;1039209;28;20124;-73
2023/12/09 01:36:50;;;;;;;1.83;1.73;;;;;;;;;;1040599;28;20033;-74
2023/12/09 01:37:22;;;;;;;1.40;0.90;;;;;;;;;;1039936;28;20032;-74
2023/12/09 01:37:52;;;;;;;1.13;0.95;;;;;;;;;;1040262;28;20393;-73
2023/12/09 01:38:22;;;;;;;0.32;0.32;;;;;;;;;;1039410;28;20056;-73
2023/12/09 01:38:53;;;;;;;1.05;0.93;;;;;;;;;;1039350;28;20116;-73
2023/12/09 01:39:23;;;;;;;0.32;0.32;;;;;;;;;;1039621;28;20549;-74
2023/12/09 01:39:54;;;;;;;0.68;0.68;;;;;;;;;;1038596;28;20466;-74
2023/12/09 01:40:24;;;;;;;0.52;0.52;;;;;;;;;;1038812;28;20103;-73
2023/12/09 01:40:55;;;;;;;2.40;1.38;;;;;;;;;;1039153;28;20056;-74
2023/12/09 01:41:27;;;;;;;2.55;1.85;;;;;;;;;;1036516;28;20029;-74
2023/12/09 01:41:58;;;;;;;1.73;1.63;;;;;;;;;;1038759;28;20037;-74
2023/12/09 01:42:28;;;;;;;1.20;1.15;;;;;;;;;;1039286;28;20037;-74
2023/12/09 01:42:59;;;;;;;0.95;0.95;;;;;;;;;;1039795;28;20029;-74
2023/12/09 01:43:29;;;;;;;0.25;0.25;;;;;;;;;;1038734;28;20060;-74
2023/12/09 01:43:59;;;;;;;0.57;0.57;;;;;;;;;;1039686;28;20425;-74
2023/12/09 01:44:30;;;;;;;1.63;1.52;;;;;;;;;;1039236;28;20017;-74
2023/12/09 01:45:00;;;;;;;1.10;1.10;;;;;;;;;;1039499;28;20312;-73
2023/12/09 01:45:31;;;;;;;1.70;1.60;;;;;;;;;;1038682;28;20025;-73
2023/12/09 01:46:05;;;;;;;3.22;1.83;;;;;;;;;;1038832;28;20055;-73
2023/12/09 01:46:36;;;;;;;0.65;0.50;;;;;;;;;;1038756;28;20025;-73
2023/12/09 01:47:07;;;;;;;1.00;1.00;;;;;;;;;;1039604;28;20028;-73
2023/12/09 01:47:38;;;;;;;0.20;0.20;;;;;;;;;;1039456;28;20032;-74
2023/12/09 01:48:09;;;;;;;1.20;1.13;;;;;;;;;;1039514;28;20275;-74
2023/12/09 01:48:40;;;;;;;1.15;1.05;;;;;;;;;;1040026;28;20360;-74
2023/12/09 01:49:10;;;;;;;0.77;0.77;;;;;;;;;;1039504;28;20567;-73
2023/12/09 01:49:41;;;;;;;0.50;0.50;;;;;;;;;;1039478;28;20025;-73
2023/12/09 01:50:11;;;;;;;1.45;1.35;;;;;;;;;;1039103;28;20493;-73
2023/12/09 01:50:42;;;;;;;0.35;0.35;;;;;;;;;;1039163;28;20024;-74
2023/12/09 01:51:14;;;;;;;0.77;0.77;;;;;;;;;;1039721;28;20017;-74
2023/12/09 01:51:45;;;;;;;0.75;0.75;;;;;;;;;;1039181;28;20501;-74
2023/12/09 01:52:15;;;;;;;3.47;1.88;;;;;;;;;;1039278;28;20039;-74
2023/12/09 01:52:46;;;;;;;1.27;1.00;;;;;;;;;;1038293;28;20481;-73
2023/12/09 01:53:17;;;;;;;6.35;2.83;;;;;;;;;;1039265;28;20056;-73
2023/12/09 01:53:47;;;;;;;0.32;0.32;;;;;;;;;;1039560;28;20108;-73
2023/12/09 01:54:17;;;;;;;1.15;0.90;;;;;;;;;;1035646;28;20036;-73
2023/12/09 01:54:48;;;;;;;3.17;2.40;;;;;;;;;;1039275;28;20087;-73
2023/12/09 01:55:18;;;;;;;0.52;0.52;;;;;;;;;;1034843;28;20033;-73
2023/12/09 01:55:49;;;;;;;14.93;1.85;;;;;;;;;;1035170;28;20113;-73
2023/12/09 01:56:20;;;;;;;0.75;0.75;;;;;;;;;;1039238;28;20065;-73
2023/12/09 01:56:50;;;;;;;0.35;0.30;;;;;;;;;;1039812;28;20136;-74
2023/12/09 01:57:21;;;;;;;0.75;0.75;;;;;;;;;;1039517;28;20036;-73
2023/12/09 01:57:54;;;;;;;0.88;0.75;;;;;;;;;;1039611;28;20026;-73
2023/12/09 01:58:25;;;;;;;3.55;2.25;;;;;;;;;;1043167;28;20143;-73
2023/12/09 01:58:56;;;;;;;0.45;0.45;;;;;;;;;;1043181;28;20755;-73
2023/12/09 01:59:26;;;;;;;1.15;1.05;;;;;;;;;;1040155;28;20025;-73
2023/12/09 01:59:57;;;;;;;3.75;1.08;;;;;;;;;;1039930;28;20032;-73
2023/12/09 02:00:27;;;;;;;3.20;0.77;;;;;;;;;;1038963;28;20029;-73
2023/12/09 02:00:58;;;;;;;0.10;0.10;;;;;;;;;;1039689;28;20013;-73
2023/12/09 02:01:29;;;;;;;2.63;1.85;;;;;;;;;;1039162;28;20022;-73
2023/12/09 02:02:01;;;;;;;1.67;1.58;;;;;;;;;;1039432;28;20017;-74
2023/12/09 02:02:31;;;;;;;1.65;1.55;;;;;;;;;;1039654;28;20029;-73
2023/12/09 02:03:04;;;;;;;1.25;1.00;;;;;;;;;;1038966;28;20024;-74
2023/12/09 02:03:34;;;;;;;0.85;0.85;;;;;;;;;;1037831;28;20063;-74
2023/12/09 02:04:06;;;;;;;0.40;0.40;;;;;;;;;;1038598;28;20099;-73
2023/12/09 02:04:36;;;;;;;0.32;0.32;;;;;;;;;;1042561;28;20107;-74
2023/12/09 02:05:07;;;;;;;0.40;0.40;;;;;;;;;;1039850;28;20540;-74
2023/12/09 02:05:38;;;;;;;1.95;1.38;;;;;;;;;;1039736;28;20393;-74
2023/12/09 02:06:09;;;;;;;0.85;0.85;;;;;;;;;;1043490;28;20021;-74
2023/12/09 02:06:40;;;;;;;0.77;0.77;;;;;;;;;;1042434;28;20029;-74
2023/12/09 02:07:10;;;;;;;6.88;2.05;;;;;;;;;;1047646;28;20016;-73
2023/12/09 02:07:41;;;;;;;0.75;0.75;;;;;;;;;;1047608;28;20480;-74
2023/12/09 02:08:12;;;;;;;0.85;0.85;;;;;;;;;;1047528;28;20069;-74
2023/12/09 02:08:43;;;;;;;0.17;0.17;;;;;;;;;;1040035;28;20452;-74
2023/12/09 02:09:14;;;;;;;0.60;0.60;;;;;;;;;;1039912;28;20111;-73
2023/12/09 02:09:45;;;;;;;0.90;0.88;;;;;;;;;;1039417;28;20029;-73
2023/12/09 02:10:16;;;;;;;4.50;0.68;;;;;;;;;;1039301;28;20406;-73
2023/12/09 02:11:02;;;;;;;0.70;0.70;;;;;;;;;;1035626;28;20068;-74
2023/12/09 02:11:53;;;;;;;1.75;1.42;;;;;;;;;;1034814;28;20040;-73
2023/12/09 02:12:27;;;;;;;0.98;0.95;;;;;;;;;;1025485;28;20439;-73
2023/12/09 02:13:09;;;;;;;6.05;1.95;;;;;;;;;;1039389;28;20029;-73
2023/12/09 02:13:51;;;;;;;1.23;1.13;;;;;;;;;;1043172;28;20013;-74
2023/12/09 02:14:42;;;;;;;8.43;2.80;;;;;;;;;;1042968;28;20029;-74
2023/12/09 02:15:18;;;;;;;0.47;0.40;;;;;;;;;;1042821;28;20444;-74
2023/12/09 02:16:03;;;;;;;4.25;1.63;;;;;;;;;;1039046;28;20493;-74
2023/12/09 02:16:41;;;;;;;23.05;2.13;;;;;;;;;;1039405;28;20116;-73
2023/12/09 02:17:25;;;;;;;1.13;0.77;;;;;;;;;;1039697;28;20083;-73
2023/12/09 02:18:03;;;;;;;4.55;1.17;;;;;;;;;;1038431;28;20693;-73
2023/12/09 02:18:35;;;;;;;0.40;0.40;;;;;;;;;;1039082;28;20049;-73
2023/12/09 02:19:07;;;;;;;1.45;0.88;;;;;;;;;;1039970;28;20029;-73
2023/12/09 02:19:38;;;;;;;0.57;0.57;;;;;;;;;;1039931;28;20018;-73
2023/12/09 02:20:11;;;;;;;0.98;0.93;;;;;;;;;;1039997;28;20017;-74
2023/12/09 02:20:41;;;;;;;0.68;0.65;;;;;;;;;;1040106;28;20033;-74
2023/12/09 02:21:12;;;;;;;4.57;1.95;;;;;;;;;;1039521;28;20128;-74
2023/12/09 02:21:58;;;;;;;0.40;0.40;;;;;;;;;;1038786;28;20152;-74
2023/12/09 02:22:29;;;;;;;0.45;0.45;;;;;;;;;;1038694;28;20013;-74
2023/12/09 02:23:09;;;;;;;1.45;1.23;;;;;;;;;;1039881;28;20025;-74
2023/12/09 02:23:39;;;;;;;;;;;;;;;;;;1040356;28;20029;-74
2023/12/09 02:24:10;;;;;;;0.75;0.32;;;;;;;;;;1040017;28;20250;-74
2023/12/09 02:24:41;;;;;;;1.60;1.20;;;;;;;;;;1042044;28;20017;-74
2023/12/09 02:25:11;;;;;;;1.80;1.10;;;;;;;;;;1040874;28;20029;-74
2023/12/09 02:25:42;;;;;;;2.42;1.75;;;;;;;;;;1040989;28;20069;-74
2023/12/09 02:26:21;;;;;;;0.68;0.68;;;;;;;;;;1039725;28;20029;-74
2023/12/09 02:26:52;;;;;;;0.65;0.65;;;;;;;;;;1039602;28;20025;-73
2023/12/09 02:27:26;;;;;;;1.17;0.88;;;;;;;;;;1039942;28;20018;-74
2023/12/09 02:27:58;;;;;;;1.15;1.08;;;;;;;;;;1039614;28;20025;-74
2023/12/09 02:28:29;;;;;;;0.93;0.85;;;;;;;;;;1039367;28;20155;-74
2023/12/09 02:29:03;;;;;;;1.05;0.98;;;;;;;;;;1039264;28;20133;-73
2023/12/09 02:29:38;;;;;;;0.32;0.32;;;;;;;;;;1039400;28;20104;-74
2023/12/09 02:30:41;;;;;;;0.30;0.30;;;;;;;;;;1038342;28;20033;-74
2023/12/09 02:31:13;;;;;;;1.63;1.52;;;;;;;;;;1031047;28;20030;-74
2023/12/09 02:31:45;;;;;;;1.35;1.25;;;;;;;;;;1031369;28;20121;-74
2023/12/09 02:32:17;;;;;;;0.80;0.80;;;;;;;;;;1036569;28;20018;-74
2023/12/09 02:32:48;;;;;;;0.15;0.15;;;;;;;;;;1039285;28;20033;-74
2023/12/09 02:33:20;;;;;;;1.05;1.05;;;;;;;;;;1039863;28;20040;-73
2023/12/09 02:33:51;;;;;;;2.65;2.10;;;;;;;;;;1040411;28;20397;-74
2023/12/09 02:34:22;;;;;;;1.15;1.05;;;;;;;;;;1040102;28;20033;-74
2023/12/09 02:34:53;;;;;;;2.72;1.95;;;;;;;;;;1039652;28;20025;-74
2023/12/09 02:35:25;;;;;;;2.28;2.08;;;;;;;;;;1039251;28;20480;-73
2023/12/09 02:35:56;;;;;;;9.40;3.60;;;;;;;;;;1035649;28;20049;-73
2023/12/09 02:36:28;;;;;;;1.17;1.08;;;;;;;;;;1035306;28;20040;-73
2023/12/09 02:36:59;;;;;;;0.30;0.30;;;;;;;;;;1035721;28;20037;-72
2023/12/09 02:37:30;;;;;;;0.73;0.73;;;;;;;;;;1035535;28;20463;-73
2023/12/09 02:38:01;;;;;;;1.90;0.55;;;;;;;;;;1043094;28;20052;-75
2023/12/09 02:38:32;;;;;;;2.38;0.98;;;;;;;;;;1043516;28;20104;-74
2023/12/09 02:39:03;;;;;;;1.38;0.70;;;;;;;;;;1047582;28;20111;-74
2023/12/09 02:39:35;;;;;;;0.40;0.38;;;;;;;;;;1046942;28;20119;-73
2023/12/09 02:40:09;;;;;;;0.98;0.98;;;;;;;;;;1043880;28;20025;-74
2023/12/09 02:40:40;;;;;;;0.32;0.32;;;;;;;;;;1044382;28;20051;-74
2023/12/09 02:41:11;;;;;;;1.45;1.35;;;;;;;;;;1039031;28;20556;-74
2023/12/09 02:41:42;;;;;;;2.78;2.58;;;;;;;;;;1039620;28;20173;-74
2023/12/09 02:42:13;;;;;;;1.02;0.68;;;;;;;;;;1039593;28;20076;-74
2023/12/09 02:42:44;;;;;;;0.22;0.22;;;;;;;;;;1039934;28;20029;-74
2023/12/09 02:43:15;;;;;;;0.20;0.20;;;;;;;;;;1039200;28;20021;-74
2023/12/09 02:43:46;;;;;;;1.25;1.15;;;;;;;;;;1039060;28;20021;-73
2023/12/09 02:44:16;;;;;;;1.77;1.38;;;;;;;;;;1039073;28;20135;-73
2023/12/09 02:44:48;;;;;;;0.40;0.40;;;;;;;;;;1039801;28;20025;-74
2023/12/09 02:45:19;;;;;;;1.73;0.95;;;;;;;;;;1039112;28;20133;-75
2023/12/09 02:45:53;;;;;;;4.75;0.98;;;;;;;;;;1035468;28;20625;-75
2023/12/09 02:46:24;;;;;;;4.38;1.38;;;;;;;;;;1031078;28;20121;-75
2023/12/09 02:47:00;;;;;;;1.23;1.17;;;;;;;;;;1030744;28;20023;-74
2023/12/09 02:47:31;;;;;;;1.75;1.65;;;;;;;;;;1032292;28;20022;-74
2023/12/09 02:48:03;;;;;;;0.22;0.22;;;;;;;;;;1034481;28;20022;-74
2023/12/09 02:48:33;;;;;;;0.30;0.30;;;;;;;;;;1038339;28;20469;-74
2023/12/09 02:49:04;;;;;;;1.23;0.68;;;;;;;;;;1042819;28;20133;-74
2023/12/09 02:49:34;;;;;;;0.40;0.40;;;;;;;;;;1042189;28;20591;-73
2023/12/09 02:50:05;;;;;;;1.27;1.23;;;;;;;;;;1037616;28;20025;-74
2023/12/09 02:50:36;;;;;;;0.10;0.10;;;;;;;;;;1034211;28;20022;-73
2023/12/09 02:51:07;;;;;;;0.73;0.73;;;;;;;;;;1034035;28;20025;-75
2023/12/09 02:51:38;;;;;;;2.05;1.35;;;;;;;;;;1034329;28;20117;-73
2023/12/09 02:52:09;;;;;;;1.10;1.00;;;;;;;;;;1039383;28;20025;-73
2023/12/09 02:52:40;;;;;;;1.17;0.95;;;;;;;;;;1039884;28;20025;-75
2023/12/09 02:53:11;;;;;;;3.63;1.35;;;;;;;;;;1039572;28;20017;-74
2023/12/09 02:53:42;;;;;;;2.33;2.13;;;;;;;;;;1035239;28;20022;-74
2023/12/09 02:54:13;;;;;;;1.95;0.45;;;;;;;;;;1034864;28;20041;-74
2023/12/09 02:54:43;;;;;;;1.77;1.67;;;;;;;;;;1039297;28;20021;-74
2023/12/09 02:55:14;;;;;;;2.83;1.95;;;;;;;;;;1037904;28;20026;-74
2023/12/09 02:55:44;;;;;;;0.98;0.98;;;;;;;;;;1038468;28;20033;-74
2023/12/09 02:56:14;;;;;;;0.57;0.57;;;;;;;;;;1039609;28;20472;-74
2023/12/09 02:56:45;;;;;;;0.75;0.70;;;;;;;;;;1037984;28;20022;-74
2023/12/09 02:57:16;;;;;;;0.75;0.75;;;;;;;;;;1035031;28;20025;-74
2023/12/09 02:57:46;;;;;;;1.88;0.98;;;;;;;;;;1029953;28;20022;-74
2023/12/09 02:58:17;;;;;;;0.63;0.63;;;;;;;;;;1030250;28;20037;-74
2023/12/09 02:58:50;;;;;;;1.67;1.55;;;;;;;;;;1031497;28;20080;-74
2023/12/09 02:59:20;;;;;;;0.47;0.47;;;;;;;;;;1034509;28;20034;-74
2023/12/09 02:59:51;;;;;;;1.08;1.05;;;;;;;;;;1038867;28;20036;-74
2023/12/09 03:00:22;;;;;;;0.35;0.35;;;;;;;;;;1039846;28;20115;-74
2023/12/09 03:00:52;;;;;;;1.65;1.58;;;;;;;;;;1038847;28;20024;-74
2023/12/09 03:01:23;;;;;;;0.63;0.63;;;;;;;;;;1038954;28;20061;-74
2023/12/09 03:01:53;;;;;;;1.08;1.00;;;;;;;;;;1038265;28;20025;-74
2023/12/09 03:02:24;;;;;;;1.35;1.25;;;;;;;;;;1038053;28;20025;-73
2023/12/09 03:02:54;;;;;;;1.13;0.82;;;;;;;;;;1038350;28;20030;-73
2023/12/09 03:03:25;;;;;;;2.10;0.90;;;;;;;;;;1038889;28;20957;-74
2023/12/09 03:03:55;;;;;;;0.28;0.28;;;;;;;;;;1037451;28;20056;-74
2023/12/09 03:04:27;;;;;;;2.78;2.28;;;;;;;;;;1038256;28;20071;-74
2023/12/09 03:04:58;;;;;;;3.03;1.85;;;;;;;;;;1038684;28;20029;-74
2023/12/09 03:05:28;;;;;;;2.40;1.42;;;;;;;;;;1040456;28;20028;-74
2023/12/09 03:05:58;;;;;;;0.28;0.28;;;;;;;;;;1039576;28;20278;-74
2023/12/09 03:06:54;;;;;;;2.00;1.70;;;;;;;;;;1037330;28;20022;-75
2023/12/09 03:07:24;;;;;;;1.90;1.77;;;;;;;;;;1031361;28;20592;-74
2023/12/09 03:07:55;;;;;;;0.70;0.70;;;;;;;;;;1032150;28;20053;-73